Terminal Aerodrome Forecast
Issued by NWS

Home | Current Version | Previous Version | Text Only | Print | Product List | Glossary On
Versions: 1 2 3 4 5 6 7 8 9 10 11 12 13 14
000
FTUS43 KAPX 171720
TAFAPN
TAF
KAPN 171720Z 1718/1818 21011G20KT P6SM SCT060 BKN120
     FM180000 22008KT 4SM -SHSN SCT025 OVC040
     FM180300 25008KT P6SM VCSH OVC030
     FM180600 28009KT P6SM BKN035
     FM181200 27004KT P6SM SCT040
     FM181500 22005KT P6SM SCT060 BKN120=

USA.gov is the U.S. government's official web portal to all federal, state and local government web resources and services.